Time;durP1;ratioP1;P1;durP2;ratioP2;P2;SDS_P1;SDS_P2;PMS_P1;PMS_P2;Temp;Humidity;BMP_temperature;BMP_pressure;BME280_temperature;BME280_humidity;BME280_pressure;Samples;Min_cycle;Max_cycle;Signal;HPM_P1;HPM_P2
2023/05/21 00:01:02;;;;;;;20.42;18.10;;;14.80;99.90;;;;;;4987845;28;20049;-59
2023/05/21 00:03:29;;;;;;;21.75;18.20;;;14.50;99.90;;;;;;4990800;28;20038;-59
2023/05/21 00:05:55;;;;;;;20.17;18.00;;;14.50;99.90;;;;;;4993044;28;20120;-59
2023/05/21 00:08:21;;;;;;;21.70;17.65;;;14.50;99.90;;;;;;4993147;28;20653;-60
2023/05/21 00:10:47;;;;;;;19.50;17.65;;;14.70;99.90;;;;;;4992542;28;20453;-59
2023/05/21 00:13:12;;;;;;;20.73;18.50;;;14.70;99.90;;;;;;4991671;28;20081;-59
2023/05/21 00:15:38;;;;;;;19.35;17.58;;;14.70;83.60;;;;;;4993033;28;20072;-59
2023/05/21 00:18:04;;;;;;;19.90;17.90;;;14.50;19.50;;;;;;4993024;28;20125;-59
2023/05/21 00:20:31;;;;;;;18.55;16.80;;;14.60;1.00;;;;;;4991707;28;20053;-60
2023/05/21 00:22:57;;;;;;;18.98;17.27;;;14.70;1.00;;;;;;4992876;28;20538;-59
2023/05/21 00:25:23;;;;;;;19.10;17.40;;;14.60;99.90;;;;;;4992391;28;20046;-59
2023/05/21 00:27:48;;;;;;;19.10;17.10;;;14.70;99.90;;;;;;4988160;28;20054;-60
2023/05/21 00:30:15;;;;;;;18.75;17.05;;;14.60;28.00;;;;;;4992011;28;20046;-60
2023/05/21 00:32:40;;;;;;;19.58;17.83;;;14.60;1.00;;;;;;4991229;28;20468;-60
2023/05/21 00:35:07;;;;;;;19.75;17.83;;;14.60;99.90;;;;;;4991264;28;20030;-60
2023/05/21 00:37:33;;;;;;;19.13;17.52;;;14.50;91.30;;;;;;4990641;28;20077;-60
2023/05/21 00:40:00;;;;;;;19.27;17.55;;;14.60;1.00;;;;;;4992362;28;20046;-60
2023/05/21 00:42:26;;;;;;;19.10;17.58;;;14.50;99.90;;;;;;4990869;28;20039;-59
2023/05/21 00:44:55;;;;;;;18.35;16.85;;;14.60;99.90;;;;;;4992063;28;20369;-60
2023/05/21 00:47:21;;;;;;;19.20;17.60;;;14.60;1.00;;;;;;4992100;28;20054;-60
2023/05/21 00:49:51;;;;;;;18.90;17.40;;;14.50;1.00;;;;;;4990464;28;20034;-59
2023/05/21 00:52:19;;;;;;;18.02;16.52;;;14.60;99.90;;;;;;4992218;28;20096;-60
2023/05/21 00:54:47;;;;;;;18.95;17.50;;;14.70;99.90;;;;;;4991390;28;20053;-60
2023/05/21 00:57:13;;;;;;;19.40;17.98;;;14.60;63.60;;;;;;4989469;28;20042;-59
2023/05/21 00:59:38;;;;;;;21.05;19.00;;;14.60;1.00;;;;;;4992043;28;20575;-59
2023/05/21 01:02:05;;;;;;;20.55;18.85;;;14.60;1.00;;;;;;4991540;28;20045;-59
2023/05/21 01:04:31;;;;;;;19.98;18.25;;;14.60;1.00;;;;;;4991397;28;20042;-59
2023/05/21 01:06:57;;;;;;;20.13;18.35;;;14.50;1.00;;;;;;4989823;28;20034;-59
2023/05/21 01:09:25;;;;;;;19.50;17.80;;;14.40;1.00;;;;;;5005725;28;20181;-59
2023/05/21 01:11:51;;;;;;;19.90;18.30;;;14.40;99.90;;;;;;4990621;28;20416;-59
2023/05/21 01:14:18;;;;;;;20.90;19.20;;;14.50;99.90;;;;;;4990694;28;20046;-59
2023/05/21 01:16:48;;;;;;;20.52;18.90;;;14.60;99.90;;;;;;4986850;28;20042;-59
2023/05/21 01:19:16;;;;;;;20.30;18.80;;;14.50;99.90;;;;;;4986672;28;20049;-59
2023/05/21 01:21:45;;;;;;;21.17;19.48;;;14.40;99.90;;;;;;4989149;28;20039;-59
2023/05/21 01:24:12;;;;;;;21.48;19.50;;;14.60;99.90;;;;;;4988719;28;20073;-59
2023/05/21 01:26:40;;;;;;;21.13;19.50;;;14.60;99.90;;;;;;4991937;28;20088;-59
2023/05/21 01:29:05;;;;;;;21.45;19.73;;;14.50;99.90;;;;;;4990005;28;20134;-59
2023/05/21 01:31:50;;;;;;;20.75;19.15;;;14.60;99.90;;;;;;4990375;28;20574;-59
2023/05/21 01:34:22;;;;;;;21.10;19.50;;;14.90;99.90;;;;;;4989584;28;20081;-59
2023/05/21 01:37:13;;;;;;;20.98;19.20;;;14.50;99.90;;;;;;4990098;28;20481;-59
2023/05/21 01:39:45;;;;;;;20.63;18.73;;;14.40;99.90;;;;;;4985862;28;20476;-59
2023/05/21 01:42:11;;;;;;;21.40;19.65;;;14.30;99.90;;;;;;4970051;28;20043;-59
2023/05/21 01:44:37;;;;;;;21.27;19.55;;;14.50;99.90;;;;;;4989564;28;20045;-59
2023/05/21 01:47:04;;;;;;;21.05;19.25;;;14.40;1.00;;;;;;4990153;28;20062;-59
2023/05/21 01:49:30;;;;;;;21.13;19.30;;;14.50;1.00;;;;;;4988056;28;20076;-59
2023/05/21 01:51:56;;;;;;;20.45;18.85;;;14.50;1.00;;;;;;4989526;28;20038;-59
2023/05/21 01:54:22;;;;;;;20.88;19.27;;;14.50;1.00;;;;;;4990332;28;20073;-59
2023/05/21 01:56:49;;;;;;;21.00;19.23;;;14.50;1.00;;;;;;4989497;28;20050;-59
2023/05/21 01:59:16;;;;;;;22.35;20.27;;;14.40;1.00;;;;;;4988869;28;20034;-59
2023/05/21 02:01:42;;;;;;;20.75;19.15;;;14.40;1.00;;;;;;4990121;28;20039;-59
2023/05/21 02:04:07;;;;;;;21.45;19.65;;;14.50;1.00;;;;;;4990169;28;20038;-59
2023/05/21 02:06:34;;;;;;;22.02;20.10;;;14.30;1.00;;;;;;4990808;28;20089;-59
2023/05/21 02:09:01;;;;;;;21.70;19.90;;;14.40;1.00;;;;;;4990338;28;20448;-60
2023/05/21 02:11:26;;;;;;;21.75;19.85;;;14.50;54.50;;;;;;4989221;28;20088;-60
2023/05/21 02:13:53;;;;;;;21.77;19.88;;;14.40;99.90;;;;;;4985891;28;20066;-59
2023/05/21 02:16:21;;;;;;;21.65;19.77;;;14.50;99.90;;;;;;4987135;28;20050;-59
2023/05/21 02:18:50;;;;;;;21.75;19.90;;;14.50;99.90;;;;;;4990806;28;20416;-59
2023/05/21 02:21:15;;;;;;;22.52;20.40;;;14.50;99.90;;;;;;4984579;28;20046;-59
2023/05/21 02:23:41;;;;;;;22.17;20.38;;;14.50;1.00;;;;;;4991016;28;20034;-59
2023/05/21 02:26:06;;;;;;;20.77;19.08;;;14.40;1.00;;;;;;4988456;28;20046;-59
2023/05/21 02:28:33;;;;;;;22.15;20.35;;;14.40;16.90;;;;;;4989866;28;20056;-59
2023/05/21 02:30:59;;;;;;;22.85;20.85;;;14.60;99.90;;;;;;4989143;28;20142;-59
2023/05/21 02:33:24;;;;;;;22.58;20.42;;;14.40;99.90;;;;;;4988759;28;20178;-59
2023/05/21 02:35:50;;;;;;;22.10;20.20;;;14.80;99.90;;;;;;4989257;28;20050;-59
2023/05/21 02:38:18;;;;;;;23.33;21.30;;;14.50;1.00;;;;;;4988326;28;20053;-59
2023/05/21 02:40:44;;;;;;;23.65;21.38;;;14.60;20.60;;;;;;4987176;28;20046;-59
2023/05/21 02:43:10;;;;;;;23.42;21.17;;;14.50;99.90;;;;;;4989795;28;20049;-59
2023/05/21 02:45:36;;;;;;;22.98;20.85;;;14.60;99.90;;;;;;4989420;28;20038;-60
2023/05/21 02:48:01;;;;;;;23.67;21.35;;;14.60;99.90;;;;;;4988481;28;20454;-59
2023/05/21 02:50:27;;;;;;;23.15;21.27;;;14.50;99.90;;;;;;4989753;28;20077;-59
2023/05/21 02:52:52;;;;;;;24.55;22.42;;;14.60;1.00;;;;;;4988082;28;20705;-60
2023/05/21 02:55:18;;;;;;;24.15;21.95;;;14.40;1.00;;;;;;4990011;28;20092;-59
2023/05/21 02:57:44;;;;;;;24.95;22.52;;;14.60;35.70;;;;;;4988966;28;20042;-59
2023/05/21 03:00:10;;;;;;;24.35;22.17;;;14.50;99.90;;;;;;4988331;28;20034;-59
2023/05/21 03:02:35;;;;;;;24.20;21.58;;;15.40;99.90;;;;;;4988579;28;20030;-59
2023/05/21 03:05:01;;;;;;;24.58;21.73;;;14.30;99.90;;;;;;4986687;28;20515;-60
2023/05/21 03:07:27;;;;;;;24.02;21.35;;;14.40;1.00;;;;;;4987032;28;20116;-59
2023/05/21 03:09:52;;;;;;;23.67;21.38;;;15.00;17.30;;;;;;4987889;28;20046;-59
2023/05/21 03:12:18;;;;;;;24.60;21.63;;;14.60;99.90;;;;;;4984978;28;20042;-59
2023/05/21 03:14:45;;;;;;;24.73;21.08;;;14.50;99.90;;;;;;4985640;28;20045;-59
2023/05/21 03:17:12;;;;;;;28.75;21.77;;;14.50;99.90;;;;;;4988698;28;20046;-59
2023/05/21 03:19:41;;;;;;;27.55;22.02;;;14.20;99.90;;;;;;4987414;28;20085;-59
2023/05/21 03:22:08;;;;;;;24.63;21.95;;;14.50;99.90;;;;;;4987487;28;20077;-59
2023/05/21 03:24:34;;;;;;;24.88;21.67;;;14.40;99.90;;;;;;4988690;28;20043;-60
2023/05/21 03:27:00;;;;;;;23.52;20.92;;;14.30;99.90;;;;;;4989329;28;20054;-59
2023/05/21 03:29:26;;;;;;;23.55;20.98;;;14.20;99.90;;;;;;4989250;28;20113;-59
2023/05/21 03:31:53;;;;;;;31.00;20.90;;;14.20;99.90;;;;;;4987938;28;20038;-59
2023/05/21 03:34:19;;;;;;;22.00;19.67;;;14.60;99.90;;;;;;4987268;28;20038;-59
2023/05/21 03:36:45;;;;;;;23.95;20.02;;;14.40;99.90;;;;;;4987968;28;20049;-60
2023/05/21 03:39:11;;;;;;;23.60;20.50;;;14.40;99.90;;;;;;4990645;28;20046;-59
2023/05/21 03:41:36;;;;;;;22.35;19.95;;;14.30;99.90;;;;;;4991872;28;20507;-59
2023/05/21 03:44:02;;;;;;;22.88;20.58;;;14.40;99.90;;;;;;4991913;28;20034;-60
2023/05/21 03:46:27;;;;;;;22.85;20.40;;;15.00;99.90;;;;;;4991992;28;20050;-59
2023/05/21 03:48:53;;;;;;;23.08;20.80;;;14.40;99.90;;;;;;4990291;28;20088;-59
2023/05/21 03:51:19;;;;;;;23.23;20.55;;;14.30;99.90;;;;;;4992263;28;20112;-59
2023/05/21 03:53:45;;;;;;;24.95;21.30;;;14.30;99.90;;;;;;4992484;28;20046;-59
2023/05/21 03:56:11;;;;;;;23.70;21.13;;;14.10;99.90;;;;;;4992773;28;20519;-59
2023/05/21 03:58:37;;;;;;;24.10;21.50;;;14.10;99.90;;;;;;4992381;28;20049;-59
2023/05/21 04:01:03;;;;;;;27.73;22.98;;;14.10;99.90;;;;;;4992661;28;20440;-59
2023/05/21 04:03:29;;;;;;;28.58;21.75;;;14.40;99.90;;;;;;4991732;28;20156;-59
2023/05/21 04:05:55;;;;;;;24.08;21.58;;;14.30;99.90;;;;;;4991339;28;20058;-59
2023/05/21 04:08:21;;;;;;;24.00;21.50;;;14.20;99.90;;;;;;4993108;28;20049;-60
2023/05/21 04:10:46;;;;;;;24.38;21.65;;;14.10;99.90;;;;;;4992186;28;20045;-59
2023/05/21 04:13:12;;;;;;;24.38;21.77;;;14.10;99.90;;;;;;4992341;28;20089;-59
2023/05/21 04:15:37;;;;;;;24.00;21.50;;;14.30;99.90;;;;;;4993224;28;20042;-59
2023/05/21 04:18:04;;;;;;;23.67;21.23;;;14.30;99.90;;;;;;4986660;28;20139;-59
2023/05/21 04:20:29;;;;;;;27.38;21.60;;;14.20;99.90;;;;;;4990086;28;20042;-59
2023/05/21 04:22:55;;;;;;;24.70;21.05;;;14.30;99.90;;;;;;4985715;28;20039;-59
2023/05/21 04:25:22;;;;;;;25.05;21.83;;;14.10;99.90;;;;;;4976072;28;20038;-60
2023/05/21 04:27:48;;;;;;;25.00;21.77;;;14.10;99.90;;;;;;4992889;28;20034;-59
2023/05/21 04:30:14;;;;;;;25.30;21.80;;;14.10;99.90;;;;;;4992501;28;20504;-59
2023/05/21 04:32:40;;;;;;;24.52;22.00;;;14.20;99.90;;;;;;4992716;28;20046;-59
2023/05/21 04:35:06;;;;;;;24.42;21.75;;;14.00;99.90;;;;;;4992979;28;20034;-59
2023/05/21 04:37:33;;;;;;;25.05;22.05;;;14.20;99.90;;;;;;4991568;28;20105;-59
2023/05/21 04:40:00;;;;;;;24.95;22.40;;;13.90;99.90;;;;;;4989616;28;20038;-59
2023/05/21 04:42:26;;;;;;;25.98;21.17;;;13.90;99.90;;;;;;4977330;28;20046;-60
2023/05/21 04:44:54;;;;;;;24.90;22.27;;;14.10;99.90;;;;;;4992785;28;20041;-59
2023/05/21 04:47:20;;;;;;;29.50;22.85;;;14.00;99.90;;;;;;4991131;28;20062;-59
2023/05/21 04:49:45;;;;;;;28.50;23.15;;;14.10;99.90;;;;;;4989409;28;20054;-60
2023/05/21 04:52:12;;;;;;;27.48;22.92;;;14.20;99.90;;;;;;4992426;28;20058;-60
2023/05/21 04:54:37;;;;;;;28.35;22.48;;;14.10;99.90;;;;;;4991150;28;20050;-60
2023/05/21 04:57:04;;;;;;;26.95;22.45;;;14.00;99.90;;;;;;4992647;28;20046;-59
2023/05/21 04:59:30;;;;;;;25.15;21.67;;;14.20;99.90;;;;;;4991984;28;20043;-60
2023/05/21 05:01:56;;;;;;;30.20;23.13;;;14.20;99.90;;;;;;4992518;28;20043;-60
2023/05/21 05:04:21;;;;;;;27.70;22.02;;;14.50;99.90;;;;;;4992055;28;20034;-59
2023/05/21 05:06:47;;;;;;;24.10;21.55;;;14.20;99.90;;;;;;4992198;28;20046;-59
2023/05/21 05:09:13;;;;;;;26.17;21.13;;;14.10;99.90;;;;;;4991365;28;20681;-59
2023/05/21 05:11:38;;;;;;;26.45;21.08;;;14.10;99.90;;;;;;4990453;28;20520;-59
2023/05/21 05:14:04;;;;;;;26.58;21.77;;;14.10;99.90;;;;;;4991500;28;20109;-59
2023/05/21 05:16:29;;;;;;;26.70;20.45;;;14.60;99.90;;;;;;4992136;28;20057;-59
2023/05/21 05:18:55;;;;;;;25.52;21.80;;;14.10;99.90;;;;;;4991730;28;20070;-60
2023/05/21 05:21:21;;;;;;;25.88;21.15;;;14.20;99.90;;;;;;4991910;28;20078;-59
2023/05/21 05:23:47;;;;;;;25.23;21.10;;;14.70;99.90;;;;;;4991269;28;20038;-59
2023/05/21 05:26:13;;;;;;;24.83;20.92;;;14.20;99.90;;;;;;4990655;28;20050;-59
2023/05/21 05:28:38;;;;;;;23.05;20.30;;;14.50;99.90;;;;;;4991407;28;20047;-59
2023/05/21 05:31:04;;;;;;;26.75;21.17;;;14.30;99.90;;;;;;4991076;28;20101;-60
2023/05/21 05:33:29;;;;;;;25.02;19.88;;;14.30;99.90;;;;;;4991122;28;20057;-59
2023/05/21 05:35:55;;;;;;;22.92;20.27;;;14.20;99.90;;;;;;4991647;28;20042;-59
2023/05/21 05:38:21;;;;;;;24.83;19.55;;;14.30;99.90;;;;;;4991551;28;20548;-60
2023/05/21 05:40:46;;;;;;;24.58;19.52;;;14.50;99.90;;;;;;4990292;28;20034;-60
2023/05/21 05:43:12;;;;;;;27.73;20.10;;;14.90;99.90;;;;;;4991246;28;20407;-60
2023/05/21 05:45:37;;;;;;;22.55;19.33;;;14.60;99.90;;;;;;4991418;28;20085;-60
2023/05/21 05:48:03;;;;;;;23.63;20.65;;;14.60;99.90;;;;;;4991114;28;20090;-59
2023/05/21 05:50:29;;;;;;;23.55;20.67;;;14.60;99.90;;;;;;4990985;28;20092;-60
2023/05/21 05:52:55;;;;;;;28.23;20.35;;;14.60;99.90;;;;;;4991400;28;20042;-60
2023/05/21 05:55:20;;;;;;;22.77;20.38;;;14.60;1.00;;;;;;4991346;28;20130;-60
2023/05/21 05:57:46;;;;;;;23.23;19.67;;;14.60;99.90;;;;;;4991444;28;20046;-60
2023/05/21 06:00:12;;;;;;;27.35;20.98;;;15.20;99.90;;;;;;4990640;28;20041;-60
2023/05/21 06:02:38;;;;;;;22.67;20.25;;;14.80;99.90;;;;;;4989591;28;20041;-60
2023/05/21 06:05:05;;;;;;;23.23;20.67;;;14.80;1.00;;;;;;4990773;28;20046;-59
2023/05/21 06:07:31;;;;;;;25.35;19.95;;;14.80;99.90;;;;;;4990861;28;20046;-59
2023/05/21 06:09:57;;;;;;;24.20;20.48;;;15.00;99.90;;;;;;4990713;28;20038;-59
2023/05/21 06:12:22;;;;;;;25.33;19.98;;;15.00;31.80;;;;;;4990816;28;20153;-60
2023/05/21 06:14:48;;;;;;;23.63;21.17;;;15.00;1.00;;;;;;4990582;28;20054;-59
2023/05/21 06:17:14;;;;;;;24.75;21.52;;;14.80;99.90;;;;;;4991041;28;20046;-59
2023/05/21 06:19:39;;;;;;;26.05;20.45;;;15.00;99.90;;;;;;4990698;28;20049;-60
2023/05/21 06:22:05;;;;;;;24.15;21.67;;;15.00;1.00;;;;;;4989394;28;20038;-60
2023/05/21 06:24:31;;;;;;;26.55;21.77;;;15.00;1.00;;;;;;4987956;28;20042;-59
2023/05/21 06:26:56;;;;;;;26.50;22.10;;;15.00;99.90;;;;;;4989270;28;20459;-59
2023/05/21 06:29:22;;;;;;;23.60;21.13;;;15.10;99.90;;;;;;4990470;28;20046;-59
2023/05/21 06:31:47;;;;;;;24.17;21.02;;;15.20;99.90;;;;;;4990436;28;20140;-59
2023/05/21 06:34:13;;;;;;;29.25;21.45;;;15.00;90.70;;;;;;4989946;28;20057;-59
2023/05/21 06:36:39;;;;;;;24.33;21.88;;;15.20;1.00;;;;;;4989275;28;20046;-59
2023/05/21 06:39:04;;;;;;;23.42;20.80;;;15.10;1.00;;;;;;4987914;28;20362;-59
2023/05/21 06:41:30;;;;;;;23.20;20.65;;;15.20;1.00;;;;;;4990175;28;20046;-59
2023/05/21 06:43:55;;;;;;;22.83;20.08;;;15.30;99.90;;;;;;4988728;28;20037;-59
2023/05/21 06:46:21;;;;;;;21.83;19.52;;;15.60;99.90;;;;;;4989186;28;20155;-59
2023/05/21 06:48:47;;;;;;;24.55;19.90;;;15.30;71.90;;;;;;4989138;28;20047;-59
2023/05/21 06:51:12;;;;;;;22.33;19.73;;;15.40;1.00;;;;;;4985893;28;20161;-59
2023/05/21 06:53:38;;;;;;;23.17;20.85;;;15.40;99.90;;;;;;4986495;28;20612;-59
2023/05/21 06:56:04;;;;;;;22.02;19.80;;;15.40;68.30;;;;;;4990433;28;20053;-59
2023/05/21 06:58:30;;;;;;;25.52;20.85;;;15.30;1.00;;;;;;4990263;28;20039;-59
2023/05/21 07:01:04;;;;;;;24.00;21.38;;;15.30;99.90;;;;;;4986329;28;20042;-59
2023/05/21 07:03:30;;;;;;;24.10;21.63;;;15.80;99.90;;;;;;4987120;28;20034;-59
2023/05/21 07:05:59;;;;;;;23.20;21.00;;;15.40;99.90;;;;;;4988065;28;20053;-59
2023/05/21 07:08:24;;;;;;;23.33;20.90;;;15.50;99.90;;;;;;4988160;28;20054;-59
2023/05/21 07:10:50;;;;;;;21.15;18.98;;;15.70;1.00;;;;;;4988430;28;20408;-59
2023/05/21 07:13:15;;;;;;;26.00;20.90;;;15.40;1.00;;;;;;4990060;28;20048;-59
2023/05/21 07:15:41;;;;;;;22.42;20.17;;;15.40;1.00;;;;;;4989201;28;20496;-59
2023/05/21 07:18:06;;;;;;;24.23;20.17;;;15.40;1.00;;;;;;4981739;28;20065;-59
2023/05/21 07:20:32;;;;;;;23.60;21.15;;;15.90;99.90;;;;;;4987812;28;20041;-59
2023/05/21 07:22:58;;;;;;;20.73;18.70;;;15.30;99.90;;;;;;4986486;28;20595;-59
2023/05/21 07:25:23;;;;;;;21.55;18.92;;;15.70;99.90;;;;;;4988117;28;20101;-59
2023/05/21 07:27:49;;;;;;;21.13;18.80;;;15.50;99.90;;;;;;4989115;28;20038;-59
2023/05/21 07:30:15;;;;;;;22.30;19.80;;;15.50;99.90;;;;;;4977545;28;20396;-59
2023/05/21 07:32:41;;;;;;;21.98;17.48;;;15.60;99.90;;;;;;4987367;28;20504;-59
2023/05/21 07:35:07;;;;;;;21.17;16.27;;;15.80;99.90;;;;;;4988439;28;20034;-59
2023/05/21 07:37:32;;;;;;;18.67;16.75;;;15.90;55.00;;;;;;4988981;28;20451;-59
2023/05/21 07:39:58;;;;;;;17.83;16.20;;;16.00;1.00;;;;;;4989072;28;20034;-59
2023/05/21 07:42:24;;;;;;;16.83;15.05;;;16.10;99.90;;;;;;4989088;28;20038;-59
2023/05/21 07:44:50;;;;;;;16.83;15.15;;;16.10;99.90;;;;;;4989182;28;20113;-59
2023/05/21 07:47:15;;;;;;;17.60;15.82;;;16.10;67.50;;;;;;4989399;28;20556;-59
2023/05/21 07:49:41;;;;;;;17.88;15.65;;;16.10;1.00;;;;;;4976448;28;20039;-59
2023/05/21 07:52:07;;;;;;;22.35;17.77;;;16.20;1.00;;;;;;4983778;28;20053;-59
2023/05/21 07:54:32;;;;;;;19.10;15.38;;;16.20;1.00;;;;;;4987914;28;20049;-59
2023/05/21 07:56:58;;;;;;;19.00;14.77;;;16.20;99.90;;;;;;4986981;28;20050;-59
2023/05/21 07:59:24;;;;;;;18.45;15.85;;;16.20;99.90;;;;;;4988969;28;20046;-59
2023/05/21 08:01:50;;;;;;;17.75;15.85;;;16.20;99.90;;;;;;4987692;28;20038;-59
2023/05/21 08:04:16;;;;;;;16.52;14.82;;;16.20;95.10;;;;;;4987915;28;20054;-59
2023/05/21 08:06:41;;;;;;;16.80;14.35;;;16.30;29.00;;;;;;4986181;28;20038;-60
2023/05/21 08:09:07;;;;;;;19.02;15.80;;;16.30;1.00;;;;;;4986819;28;20526;-59
2023/05/21 08:11:33;;;;;;;17.45;15.48;;;16.30;1.00;;;;;;4988530;28;20108;-59
2023/05/21 08:13:58;;;;;;;17.38;14.77;;;16.50;1.00;;;;;;4989411;28;20052;-59
2023/05/21 08:16:24;;;;;;;17.13;13.48;;;16.60;1.00;;;;;;4989806;28;20046;-59
2023/05/21 08:18:50;;;;;;;14.50;12.85;;;16.70;1.00;;;;;;4989656;28;20041;-60
2023/05/21 08:21:15;;;;;;;14.07;12.55;;;16.80;1.00;;;;;;4986488;28;20035;-59
2023/05/21 08:23:41;;;;;;;15.38;13.30;;;16.70;99.90;;;;;;4986858;28;20042;-59
2023/05/21 08:26:07;;;;;;;17.05;13.02;;;16.80;99.90;;;;;;4989133;28;20038;-59
2023/05/21 08:28:34;;;;;;;17.23;13.63;;;17.00;99.90;;;;;;4986035;28;20047;-59
2023/05/21 08:31:00;;;;;;;14.82;11.10;;;17.10;99.90;;;;;;4989471;28;20053;-59
2023/05/21 08:33:27;;;;;;;13.93;12.50;;;17.30;99.90;;;;;;4991851;28;20057;-59
2023/05/21 08:35:52;;;;;;;14.75;12.50;;;17.40;99.90;;;;;;4990826;28;20042;-59
2023/05/21 08:38:18;;;;;;;17.27;12.48;;;17.60;94.30;;;;;;4989782;28;20265;-59
2023/05/21 08:40:46;;;;;;;15.45;10.88;;;17.80;64.00;;;;;;4991548;28;20038;-60
2023/05/21 08:43:15;;;;;;;12.35;11.13;;;18.00;10.00;;;;;;4984098;28;20030;-59
2023/05/21 08:45:43;;;;;;;16.95;9.65;;;17.70;1.00;;;;;;4985328;28;20092;-59
2023/05/21 08:48:11;;;;;;;15.13;10.38;;;17.60;1.00;;;;;;4989830;28;20436;-59
2023/05/21 08:50:36;;;;;;;15.60;12.10;;;17.70;1.00;;;;;;4990590;28;20089;-60
2023/05/21 08:53:02;;;;;;;16.42;14.68;;;17.40;1.00;;;;;;4989778;28;20117;-59
2023/05/21 08:55:29;;;;;;;17.58;15.02;;;17.40;1.00;;;;;;4987071;28;20038;-60
2023/05/21 08:57:55;;;;;;;16.58;14.70;;;17.40;1.00;;;;;;4990841;28;20097;-59
2023/05/21 09:00:21;;;;;;;16.83;14.52;;;17.30;1.00;;;;;;4991873;28;20038;-59
2023/05/21 09:02:47;;;;;;;15.88;14.18;;;17.30;1.00;;;;;;4992229;28;20428;-59
2023/05/21 09:05:14;;;;;;;16.75;14.68;;;17.20;1.00;;;;;;4991400;28;20042;-60
2023/05/21 09:07:49;;;;;;;15.98;14.38;;;17.20;1.00;;;;;;4986054;28;20038;-59
2023/05/21 09:10:19;;;;;;;20.42;16.02;;;17.40;1.00;;;;;;4990828;28;20034;-59
2023/05/21 09:12:47;;;;;;;15.52;13.93;;;17.20;1.00;;;;;;4991089;28;20057;-59
2023/05/21 09:15:12;;;;;;;24.48;15.50;;;17.40;1.00;;;;;;4988612;28;20073;-60
2023/05/21 09:17:38;;;;;;;15.15;13.35;;;17.10;1.00;;;;;;4987974;28;20070;-60
2023/05/21 09:20:16;;;;;;;12.98;11.18;;;17.10;1.00;;;;;;4989138;28;20045;-59
2023/05/21 09:22:49;;;;;;;17.58;12.65;;;17.00;1.00;;;;;;4989850;28;20451;-59
2023/05/21 09:25:28;;;;;;;14.70;12.73;;;16.90;1.00;;;;;;4988131;28;20034;-59
2023/05/21 09:27:58;;;;;;;14.93;13.48;;;16.90;1.00;;;;;;4983641;28;20038;-59
2023/05/21 09:30:24;;;;;;;15.00;12.70;;;17.00;1.00;;;;;;4990542;28;20814;-59
2023/05/21 09:33:07;;;;;;;18.02;16.02;;;17.00;1.00;;;;;;4985690;28;20409;-59
2023/05/21 09:35:34;;;;;;;16.00;14.35;;;17.00;1.00;;;;;;4989372;28;20046;-60
2023/05/21 09:38:00;;;;;;;17.15;15.52;;;17.00;1.00;;;;;;4989650;28;20107;-59
2023/05/21 09:40:26;;;;;;;16.17;12.63;;;17.00;1.00;;;;;;4990268;28;20046;-59
2023/05/21 09:42:53;;;;;;;15.77;14.02;;;17.10;1.00;;;;;;4990658;28;20038;-59
2023/05/21 09:45:26;;;;;;;17.42;13.25;;;17.20;1.00;;;;;;4991462;28;20060;-59
2023/05/21 09:47:53;;;;;;;16.15;14.48;;;17.00;1.00;;;;;;4990551;28;20047;-60
2023/05/21 09:50:21;;;;;;;16.05;13.15;;;17.10;1.00;;;;;;4988607;28;20068;-59
2023/05/21 09:52:49;;;;;;;15.15;12.90;;;17.00;1.00;;;;;;4990667;28;20139;-59
2023/05/21 09:55:15;;;;;;;15.50;13.10;;;16.90;1.00;;;;;;4987402;28;20476;-60
2023/05/21 09:57:42;;;;;;;15.43;13.82;;;17.00;1.00;;;;;;4988775;28;20050;-59
2023/05/21 10:00:16;;;;;;;16.65;13.35;;;17.10;1.00;;;;;;4987476;28;20496;-59
2023/05/21 10:02:44;;;;;;;14.07;12.57;;;17.10;1.00;;;;;;4988435;28;20064;-59
2023/05/21 10:05:12;;;;;;;14.90;11.68;;;17.30;1.00;;;;;;4986344;28;20112;-60
2023/05/21 10:07:40;;;;;;;12.77;11.02;;;17.40;1.00;;;;;;4990460;28;20050;-60
2023/05/21 10:10:08;;;;;;;16.13;11.52;;;17.30;1.00;;;;;;4989672;28;20072;-60
2023/05/21 10:12:34;;;;;;;16.02;14.45;;;17.10;99.90;;;;;;4986035;28;20120;-60
2023/05/21 10:15:03;;;;;;;18.95;13.02;;;17.10;99.90;;;;;;4988862;28;20054;-60
2023/05/21 10:17:32;;;;;;;14.20;12.43;;;17.00;99.90;;;;;;4990929;28;20046;-59
2023/05/21 10:19:58;;;;;;;14.98;12.85;;;17.10;99.90;;;;;;4987657;28;20078;-60
2023/05/21 10:22:24;;;;;;;16.60;14.95;;;16.90;99.90;;;;;;4986217;28;20516;-60
2023/05/21 10:24:53;;;;;;;14.80;13.38;;;16.90;1.00;;;;;;4990428;28;20119;-60
2023/05/21 10:27:19;;;;;;;16.33;14.38;;;16.90;1.00;;;;;;4988346;28;20054;-60
2023/05/21 10:29:45;;;;;;;14.43;12.95;;;17.00;1.00;;;;;;4988297;28;20448;-60
2023/05/21 10:32:13;;;;;;;14.23;12.73;;;17.10;1.00;;;;;;4986101;28;20054;-60
2023/05/21 10:34:39;;;;;;;18.92;13.73;;;16.90;1.00;;;;;;4986830;28;20046;-60
2023/05/21 10:37:08;;;;;;;14.00;12.50;;;16.90;1.00;;;;;;4986714;28;20045;-60
2023/05/21 10:39:34;;;;;;;15.20;13.05;;;17.00;1.00;;;;;;4986006;28;20133;-63
2023/05/21 10:42:17;;;;;;;15.45;10.43;;;17.00;1.00;;;;;;4987389;28;20048;-63
2023/05/21 10:44:48;;;;;;;11.43;9.38;;;17.30;99.90;;;;;;4989798;28;20038;-63
2023/05/21 10:47:43;;;;;;;14.75;9.68;;;17.00;99.90;;;;;;4989173;28;20065;-63
2023/05/21 10:50:43;;;;;;;12.45;11.25;;;17.30;99.90;;;;;;4981239;28;20082;-63
2023/05/21 10:53:16;;;;;;;14.30;11.27;;;17.40;99.90;;;;;;4985159;28;20043;-63
2023/05/21 10:55:57;;;;;;;10.35;9.27;;;17.60;99.90;;;;;;4987587;28;20967;-63
2023/05/21 10:59:06;;;;;;;12.98;8.05;;;17.70;99.90;;;;;;4985341;28;20034;-63
2023/05/21 11:01:36;;;;;;;15.07;13.00;;;17.60;99.90;;;;;;4988344;28;20045;-63
2023/05/21 11:04:02;;;;;;;13.93;11.45;;;17.70;99.90;;;;;;4989365;28;20038;-63
2023/05/21 11:06:28;;;;;;;15.63;13.30;;;17.60;99.90;;;;;;4989507;28;20053;-63
2023/05/21 11:08:54;;;;;;;16.52;12.40;;;17.70;99.90;;;;;;4989145;28;20069;-63
2023/05/21 11:11:41;;;;;;;12.45;11.15;;;17.70;1.00;;;;;;4988281;28;20034;-63
2023/05/21 11:14:25;;;;;;;11.32;10.10;;;17.80;1.00;;;;;;4986117;28;20078;-63
2023/05/21 11:16:51;;;;;;;10.68;9.20;;;17.60;99.90;;;;;;4988345;28;20041;-63
2023/05/21 11:19:17;;;;;;;9.52;8.48;;;17.60;99.90;;;;;;4984053;28;20034;-63
2023/05/21 11:21:48;;;;;;;13.52;9.65;;;17.60;99.90;;;;;;4988149;28;20117;-59
2023/05/21 11:24:18;;;;;;;11.38;9.30;;;17.70;99.90;;;;;;4988367;28;20054;-59
2023/05/21 11:26:47;;;;;;;11.32;10.23;;;17.80;99.90;;;;;;4989970;28;20058;-59
2023/05/21 11:29:13;;;;;;;10.13;6.90;;;17.80;99.90;;;;;;4989574;28;20526;-59
2023/05/21 11:31:45;;;;;;;11.02;8.50;;;17.90;99.90;;;;;;4986006;28;20046;-60
2023/05/21 11:34:18;;;;;;;9.98;8.57;;;17.80;99.90;;;;;;4986073;28;20109;-59
2023/05/21 11:36:46;;;;;;;10.48;6.78;;;17.80;99.90;;;;;;4988416;28;20069;-60
2023/05/21 11:39:20;;;;;;;9.07;8.18;;;18.20;99.90;;;;;;4988732;28;20049;-60
2023/05/21 11:41:55;;;;;;;10.57;8.65;;;17.70;99.90;;;;;;4989602;28;20176;-59
2023/05/21 11:44:40;;;;;;;12.73;8.33;;;17.70;99.90;;;;;;4986202;28;20519;-60
2023/05/21 11:47:08;;;;;;;11.30;8.80;;;17.60;99.90;;;;;;4985412;28;20882;-59
2023/05/21 11:49:34;;;;;;;12.45;8.95;;;17.60;99.90;;;;;;4988371;28;20057;-59
2023/05/21 11:52:00;;;;;;;9.82;8.50;;;17.70;99.90;;;;;;4987789;28;20046;-59
2023/05/21 11:54:33;;;;;;;13.25;10.00;;;17.70;99.90;;;;;;4987960;28;20104;-59
2023/05/21 11:57:00;;;;;;;12.30;11.10;;;17.70;99.90;;;;;;4986166;28;20501;-59
2023/05/21 11:59:26;;;;;;;14.68;11.57;;;17.60;99.90;;;;;;4990423;28;20054;-59
2023/05/21 12:01:52;;;;;;;11.05;9.73;;;17.80;99.90;;;;;;4992730;28;20404;-59
2023/05/21 12:04:18;;;;;;;12.15;10.90;;;17.70;99.90;;;;;;4993909;28;20090;-59
2023/05/21 12:06:43;;;;;;;16.40;12.95;;;18.20;99.90;;;;;;4992298;28;20073;-59
2023/05/21 12:09:09;;;;;;;16.10;10.20;;;17.50;99.90;;;;;;4991730;28;20034;-59
2023/05/21 12:11:38;;;;;;;13.85;11.77;;;17.50;99.90;;;;;;4988791;28;20085;-59
2023/05/21 12:14:08;;;;;;;15.68;12.02;;;17.50;99.90;;;;;;4993413;28;20038;-60
2023/05/21 12:16:33;;;;;;;15.05;11.57;;;17.70;99.90;;;;;;5005868;28;20042;-59
2023/05/21 12:18:59;;;;;;;14.85;11.07;;;17.60;99.90;;;;;;4992316;28;20030;-58
2023/05/21 12:21:27;;;;;;;11.70;9.38;;;17.60;99.90;;;;;;4987350;28;20077;-58
2023/05/21 12:23:53;;;;;;;13.40;10.98;;;17.50;99.90;;;;;;4992028;28;20053;-61
2023/05/21 12:26:24;;;;;;;13.18;11.27;;;17.50;99.90;;;;;;4993102;28;20050;-59
2023/05/21 12:28:52;;;;;;;15.63;12.27;;;17.50;99.90;;;;;;4992315;28;20038;-59
2023/05/21 12:31:19;;;;;;;17.75;12.27;;;17.50;99.90;;;;;;4992849;28;20616;-59